CDT,Max TemperatureF,Mean TemperatureF,Min TemperatureF,Max Dew PointF,MeanDew PointF,Min DewpointF,Max Humidity, Mean Humidity, Min Humidity, Max Sea Level PressureIn, Mean Sea Level PressureIn, Min Sea Level PressureIn, Max VisibilityMiles, Mean VisibilityMiles, Min VisibilityMiles, Max Wind SpeedMPH, Mean Wind SpeedMPH, Max Gust SpeedMPH,PrecipitationIn, CloudCover, Events, WindDirDegrees
2011-10-1,69,56,42,48,44,39,93,65,40,30.26,30.21,30.15,10,10,10,9,1,,0.00,0,,86
2011-10-2,73,60,46,48,45,41,82,61,41,30.28,30.22,30.16,10,10,10,8,4,,0.00,0,,119
2011-10-3,77,62,48,54,48,43,82,61,38,30.25,30.20,30.15,10,10,10,7,0,,0.00,0,,181
2011-10-4,80,66,51,54,50,45,82,60,37,30.26,30.19,30.15,10,10,10,8,4,,0.00,0,,137
2011-10-5,78,64,51,54,49,45,77,60,39,30.20,30.15,30.07,10,10,10,10,6,,0.00,0,,145
2011-10-6,80,68,55,57,52,46,77,60,42,30.12,30.07,30.01,10,10,10,16,9,21,0.00,0,,141
2011-10-7,80,70,60,63,56,54,77,63,42,30.16,30.10,30.04,10,10,10,21,12,29,0.00,,,145
2011-10-8,80,71,62,61,57,55,82,65,44,30.18,30.12,30.07,10,10,10,15,11,25,0.00,,,146
2011-10-9,77,68,60,61,57,54,82,69,53,30.16,30.11,30.04,10,10,10,16,10,22,0.00,,,125
2011-10-10,71,65,59,64,59,54,100,83,72,30.08,30.02,29.98,10,9,2,15,6,,0.00,,,155
2011-10-11,71,64,57,66,61,57,100,93,77,29.98,29.91,29.83,10,8,3,13,1,18,0.08,,,133
2011-10-12,73,65,57,63,59,52,100,84,60,29.82,29.74,29.64,10,9,2,14,5,20,0.17,,,191
2011-10-13,71,61,51,55,50,43,94,66,41,29.87,29.81,29.74,10,10,10,16,8,24,0.00,0,,301
2011-10-14,73,58,44,48,44,41,93,60,36,29.98,29.92,29.87,10,10,10,9,1,,0.00,0,,285
2011-10-15,75,58,42,54,44,36,81,57,41,30.14,30.05,29.96,10,8,2,10,1,,0.00,0,,164
2011-10-16,84,72,60,61,53,46,64,53,42,29.96,29.92,29.86,10,10,10,23,13,30,0.00,,,218
2011-10-17,73,63,53,61,50,39,77,67,57,29.96,29.83,29.68,10,10,5,21,7,30,0.00,0,,96
2011-10-18,57,50,42,45,40,34,100,75,44,29.97,29.92,29.84,10,9,3,20,12,28,0.14,6,,345
2011-10-19,50,42,33,34,31,28,93,71,50,29.98,29.95,29.90,10,10,10,20,7,26,0.00,2,,328
2011-10-20,53,40,28,36,31,27,100,70,44,30.07,30.02,29.97,10,10,10,14,2,22,0.00,0,,298
2011-10-21,68,49,30,45,37,28,93,65,42,30.20,30.13,30.09,10,10,10,8,0,,0.00,,,223
2011-10-22,71,60,48,54,47,39,82,63,43,30.12,30.05,29.96,10,10,7,8,0,,0.00,,,118
2011-10-23,71,60,48,57,52,46,100,76,57,30.05,30.00,29.95,10,10,7,10,3,,0.00,,,236
2011-10-24,66,58,51,59,53,52,100,95,77,30.18,30.11,30.06,10,8,5,8,5,,0.00,,,214
2011-10-25,,,,,,,,,,,,,,,,,,,,,,
2011-10-26,,,,,,,,,,,,,,,,,,,,,,
2011-10-27,,,,,,,,,,,,,,,,,,,,,,
2011-10-28,,,,,,,,,,,,,,,,,,,,,,
2011-10-29,,,,,,,,,,,,,,,,,,,,,,
2011-10-30,,,,,,,,,,,,,,,,,,,,,,
2011-10-31,,,,,,,,,,,,,,,,,,,,,,